• Join FlightAware (Why Join?)
  • Login
  • US Flag 
01:44PM EDT


 

Airport Tracker/Info


-or-


 

Live Flight TrackerFlight Track Log ✈ CSQ965 ✈ 27-Apr-2012 ✈ KMIA - MKJP / KIN

Flight Track Log - Related Links

Times and Time Zones

All times are in EDT time to prevent confusion due to time zone crossing. See the CSQ965 flight status page for this flight to view local times or setup timezone preferences in your user account.

Time Position Orientation Groundspeed Altitude Reporting Facility
EDT Latitude Longitude Course Direction KTS MPH feet Rate Location/Type
09:50AM 25.8003 -80.2700 148° Southeast 102 117 600  Level Miami Center
09:50AM 25.7756 -80.2531 155° Southeast 138 159 1,700 1,380 Climbing Miami Center
09:52AM 25.7386 -80.2336 152° Southeast 143 165 3,200 1,380 Climbing Miami Center
09:53AM 25.7014 -80.2117 159° South 140 161 4,700 1,320 Climbing Miami Center
09:54AM 25.6600 -80.1944 153° Southeast 142 163 6,100 1,260 Climbing Miami Center
09:55AM 25.6250 -80.1750 153° Southeast 145 167 7,300 540 Climbing Miami Center
09:56AM 25.5775 -80.1483 156° South 204 235 7,300 720 Level Miami Center
09:57AM 25.5094 -80.1144 153° Southeast 198 228 9,200 1,080 Climbing Miami Center
09:58AM 25.4661 -80.0903 156° South 192 221 10,100 900 Climbing Miami Center
09:59AM 25.4225 -80.0683 154° Southeast 181 208 11,100 900 Climbing Miami Center
10:00AM 25.3772 -80.0442 154° Southeast 181 208 11,900 420 Climbing Miami Center
10:01AM 25.3275 -80.0175 149° Southeast 183 211 12,000 60 Climbing Miami Center
10:02AM 25.2742 -79.9817 152° Southeast 200 230 12,100  Climbing Miami Center
10:03AM 25.2142 -79.9458 166° South 226 260 12,100  Level Miami Center
10:04AM 25.1478 -79.9281 163° South 238 274 12,100 -60 Level Miami Center
10:05AM 25.0814 -79.9058 165° South 243 280 12,000 240 Descending Miami Center
10:06AM 25.0128 -79.8856 162° South 248 285 12,600 600 Climbing Miami Center
10:07AM 24.9528 -79.8636 161° South 243 280 13,200 600 Climbing Miami Center
10:08AM 24.8947 -79.8414 164° South 233 268 13,900 780 Climbing Miami Center
10:09AM 24.8386 -79.8242 161° South 221 254 14,800 540 Climbing Miami Center
10:10AM 24.7806 -79.8022 160° South 221 254 15,000 60 Climbing Miami Center
10:11AM 24.7183 -79.7778 159° South 228 262 15,000  Level Miami Center
10:12AM 24.6542 -79.7511 161° South 233 268 15,100  Climbing Miami Center
10:13AM 24.5878 -79.7267 161° South 246 283 15,000  Descending Miami Center
10:14AM 24.5233 -79.7025 161° South 246 283 15,100  Climbing Miami Center
10:15AM 24.4592 -79.6781 160° South 246 283 15,000 -60 Descending Miami Center
10:16AM 24.3928 -79.6517 160° South 246 283 15,000  Level Miami Center
10:17AM 24.3264 -79.6250 155° Southeast 246 283 15,100  Climbing Miami Center
10:18AM 24.2600 -79.5917 151° Southeast 251 289 15,000 -60 Descending Miami Center
10:19AM 24.1981 -79.5539 157° South 251 289 15,000  Level Miami Center
10:20AM 24.1317 -79.5228 154° Southeast 256 295 15,000 -60 Level Miami Center
10:21AM 24.0697 -79.4897 154° Southeast 256 295 14,900  Descending Miami Center
10:22AM 24.0075 -79.4564 162° South 256 295 15,000 60 Climbing Miami Center
10:23AM 23.9411 -79.4325 164° South 256 295 15,100  Climbing Miami Center
10:24AM 23.8706 -79.4106 130° Southeast 251 289 15,000 -120 Descending Miami Center
10:32AM 23.6899 -79.1785 158° South  Level FlightAware Approximate
10:33AM 23.6305 -79.1517 158° South  Level FlightAware Approximate
10:34AM 23.5711 -79.1250 158° South  Level FlightAware Approximate
10:35AM 23.5117 -79.0984 158° South  Level FlightAware Approximate
10:36AM 23.4523 -79.0717 158° South  Level FlightAware Approximate
10:37AM 23.3929 -79.0451 158° South  Level FlightAware Approximate
10:38AM 23.3335 -79.0184 158° South  Level FlightAware Approximate
10:39AM 23.2740 -78.9919 158° South  Level FlightAware Approximate
10:40AM 23.2146 -78.9653 158° South  Level FlightAware Approximate
10:41AM 23.1552 -78.9388 158° South  Level FlightAware Approximate
10:42AM 23.0957 -78.9122 158° South  Level FlightAware Approximate
10:43AM 23.0363 -78.8857 158° South  Level FlightAware Approximate
10:44AM 22.9768 -78.8593 158° South  Level FlightAware Approximate
10:45AM 22.9174 -78.8328 158° South  Level FlightAware Approximate
10:46AM 22.8579 -78.8064 158° South  Level FlightAware Approximate
10:47AM 22.7985 -78.7800 158° South  Level FlightAware Approximate
10:48AM 22.7390 -78.7536 158° South  Level FlightAware Approximate
10:49AM 22.6795 -78.7272 158° South  Level FlightAware Approximate
10:50AM 22.6201 -78.7009 158° South  Level FlightAware Approximate
10:51AM 22.5606 -78.6746 158° South  Level FlightAware Approximate
10:52AM 22.5011 -78.6483 158° South  Level FlightAware Approximate
10:53AM 22.4416 -78.6221 158° South  Level FlightAware Approximate
10:54AM 22.3821 -78.5958 158° South  Level FlightAware Approximate
10:55AM 22.3226 -78.5696 158° South  Level FlightAware Approximate
10:56AM 22.2631 -78.5434 158° South  Level FlightAware Approximate
10:57AM 22.2036 -78.5172 159° South  Level FlightAware Approximate
10:58AM 22.1437 -78.4921 159° South  Level FlightAware Approximate
10:59AM 22.0839 -78.4669 159° South  Level FlightAware Approximate
11:00AM 22.0240 -78.4417 159° South  Level FlightAware Approximate
11:01AM 21.9641 -78.4166 159° South  Level FlightAware Approximate
11:02AM 21.9042 -78.3915 159° South  Level FlightAware Approximate
11:03AM 21.8444 -78.3664 159° South  Level FlightAware Approximate
11:04AM 21.7845 -78.3414 159° South  Level FlightAware Approximate
11:05AM 21.7246 -78.3163 159° South  Level FlightAware Approximate
11:06AM 21.6647 -78.2913 159° South  Level FlightAware Approximate
11:07AM 21.6048 -78.2663 159° South  Level FlightAware Approximate
11:08AM 21.5449 -78.2413 159° South  Level FlightAware Approximate
11:09AM 21.4850 -78.2164 159° South  Level FlightAware Approximate
11:10AM 21.4251 -78.1914 159° South  Level FlightAware Approximate
11:11AM 21.3652 -78.1665 159° South  Level FlightAware Approximate
11:12AM 21.3052 -78.1416 159° South  Level FlightAware Approximate
11:13AM 21.2453 -78.1167 159° South  Level FlightAware Approximate
11:14AM 21.1854 -78.0919 159° South  Level FlightAware Approximate
11:15AM 21.1255 -78.0670 159° South  Level FlightAware Approximate
11:16AM 21.0655 -78.0422 159° South  Level FlightAware Approximate
11:17AM 21.0056 -78.0174 159° South  Level FlightAware Approximate
11:18AM 20.9457 -77.9927 159° South  Level FlightAware Approximate
11:19AM 20.8857 -77.9679 159° South  Level FlightAware Approximate
11:20AM 20.8258 -77.9432 159° South  Level FlightAware Approximate
11:21AM 20.7658 -77.9185 159° South  Level FlightAware Approximate
11:22AM 20.7059 -77.8938 159° South  Level FlightAware Approximate
11:23AM 20.6459 -77.8691 159° South  Level FlightAware Approximate
11:24AM 20.5859 -77.8444 159° South  Level FlightAware Approximate
11:25AM 20.5260 -77.8198 159° South  Level FlightAware Approximate
11:26AM 20.4660 -77.7952 159° South  Level FlightAware Approximate
11:27AM 20.4060 -77.7706 159° South  Level FlightAware Approximate
11:28AM 20.3461 -77.7460 159° South  Level FlightAware Approximate
11:29AM 20.2861 -77.7214 159° South  Level FlightAware Approximate
11:30AM 20.2261 -77.6969 159° South  Level FlightAware Approximate
11:31AM 20.1661 -77.6723 159° South  Level FlightAware Approximate
11:32AM 20.1061 -77.6479 159° South  Level FlightAware Approximate
11:33AM 20.0462 -77.6234 159° South  Level FlightAware Approximate
11:34AM 19.9862 -77.5989 159° South  Level FlightAware Approximate
11:35AM 19.9262 -77.5744 159° South  Level FlightAware Approximate
11:36AM 19.8662 -77.5500 159° South  Level FlightAware Approximate
11:37AM 19.8062 -77.5256 159° South  Level FlightAware Approximate
11:38AM 19.7461 -77.5012 159° South  Level FlightAware Approximate
11:39AM 19.6861 -77.4769 159° South  Level FlightAware Approximate
11:40AM 19.6261 -77.4525 159° South  Level FlightAware Approximate
11:41AM 19.5661 -77.4282 159° South  Level FlightAware Approximate
11:42AM 19.5061 -77.4038 159° South  Level FlightAware Approximate
11:43AM 19.4461 -77.3795 159° South  Level FlightAware Approximate
11:44AM 19.3860 -77.3553 159° South  Level FlightAware Approximate
11:45AM 19.3260 -77.3310 159° South  Level FlightAware Approximate
11:46AM 19.2660 -77.3067 159° South  Level FlightAware Approximate
11:47AM 19.2059 -77.2825 159° South  Level FlightAware Approximate
11:48AM 19.1459 -77.2583 159° South  Level FlightAware Approximate
11:49AM 19.0858 -77.2341 159° South  Level FlightAware Approximate
11:50AM 19.0258 -77.2099 159° South  Level FlightAware Approximate
11:51AM 18.9657 -77.1858 126° Southeast  Level FlightAware Approximate
11:52AM 18.9285 -77.1318 161° South  Level FlightAware Approximate
11:53AM 18.8678 -77.1098 161° South  Level FlightAware Approximate
11:54AM 18.8070 -77.0877 161° South  Level FlightAware Approximate
11:55AM 18.7462 -77.0657 161° South  Level FlightAware Approximate
11:56AM 18.6855 -77.0437 169° South  Level FlightAware Approximate
11:57AM 18.6256 -77.0318 160° South  Level FlightAware Approximate
11:58AM 18.5651 -77.0090 155° Southeast  Level FlightAware Approximate
11:59AM 18.5071 -76.9801 161° South  Level FlightAware Approximate
12:00PM 18.4464 -76.9581 161° South  Level FlightAware Approximate
12:01PM 18.3856 -76.9361 161° South  Level FlightAware Approximate
12:02PM 18.3248 -76.9141 165° South  Level FlightAware Approximate
12:03PM 18.2642 -76.8970 160° South  Level FlightAware Approximate
12:04PM 18.2037 -76.8742 157° South  Level FlightAware Approximate
12:05PM 18.1446 -76.8478 161° South  Level FlightAware Approximate
12:06PM 18.0837 -76.8261 162° South  Level FlightAware Approximate
12:07PM 18.0229 -76.8057 162° South  Level FlightAware Approximate
12:08PM 17.9620 -76.7848 186° South  Level FlightAware Approximate
12:09PM 17.8981 -76.7914 52° Northeast  Level Estimated
12:10PM 17.9167 -76.7667 314° West  Level FlightAware Approximate
12:11PM 17.9611 -76.8154 134° Southeast  Level Estimated
12:12PM 17.9167 -76.7667 314° West  Level FlightAware Approximate
12:13PM 17.9611 -76.8154 134° Southeast  Level Estimated
12:14PM 17.9167 -76.7667 314° West  Level FlightAware Approximate
12:15PM 17.9611 -76.8154 134° Southeast  Level Estimated
12:16PM 17.9167 -76.7667 314° West  Level FlightAware Approximate
12:17PM 17.9611 -76.8154 134° Southeast  Level Estimated
12:18PM 17.9167 -76.7667 314° West  Level FlightAware Approximate
12:19PM 17.9611 -76.8154 134° Southeast  Level Estimated
12:20PM 17.9167 -76.7667 134° Southeast  Level FlightAware Approximate